sensor_id;sensor_type;location;lat;lon;timestamp;P1;durP1;ratioP1;P2;durP2;ratioP2
13014;SDS011;6573;57.696;11.950;2024-03-02T00:00:54;61.70;;;42.37;;
13014;SDS011;6573;57.696;11.950;2024-03-02T00:03:23;63.93;;;43.80;;
13014;SDS011;6573;57.696;11.950;2024-03-02T00:05:53;68.00;;;45.33;;
13014;SDS011;6573;57.696;11.950;2024-03-02T00:08:22;67.30;;;43.97;;
13014;SDS011;6573;57.696;11.950;2024-03-02T00:10:58;61.10;;;44.63;;
13014;SDS011;6573;57.696;11.950;2024-03-02T00:13:29;63.30;;;44.63;;
13014;SDS011;6573;57.696;11.950;2024-03-02T00:15:59;64.63;;;43.97;;
13014;SDS011;6573;57.696;11.950;2024-03-02T00:18:30;65.60;;;43.17;;
13014;SDS011;6573;57.696;11.950;2024-03-02T00:21:01;62.57;;;42.63;;
13014;SDS011;6573;57.696;11.950;2024-03-02T00:23:31;67.17;;;44.20;;
13014;SDS011;6573;57.696;11.950;2024-03-02T00:26:03;61.13;;;43.23;;
13014;SDS011;6573;57.696;11.950;2024-03-02T00:28:32;59.97;;;42.50;;
13014;SDS011;6573;57.696;11.950;2024-03-02T00:31:03;68.03;;;44.87;;
13014;SDS011;6573;57.696;11.950;2024-03-02T00:33:35;58.67;;;42.17;;
13014;SDS011;6573;57.696;11.950;2024-03-02T00:36:05;60.50;;;43.30;;
13014;SDS011;6573;57.696;11.950;2024-03-02T00:38:36;61.00;;;42.17;;
13014;SDS011;6573;57.696;11.950;2024-03-02T00:41:20;58.57;;;40.87;;
13014;SDS011;6573;57.696;11.950;2024-03-02T00:43:56;60.67;;;41.50;;
13014;SDS011;6573;57.696;11.950;2024-03-02T00:46:29;60.00;;;42.90;;
13014;SDS011;6573;57.696;11.950;2024-03-02T00:49:00;62.67;;;43.80;;
13014;SDS011;6573;57.696;11.950;2024-03-02T00:51:31;64.50;;;45.53;;
13014;SDS011;6573;57.696;11.950;2024-03-02T00:54:04;61.60;;;42.13;;
13014;SDS011;6573;57.696;11.950;2024-03-02T00:56:38;61.30;;;43.07;;
13014;SDS011;6573;57.696;11.950;2024-03-02T00:59:10;60.50;;;41.17;;
13014;SDS011;6573;57.696;11.950;2024-03-02T01:01:39;62.63;;;44.47;;
13014;SDS011;6573;57.696;11.950;2024-03-02T01:04:09;59.93;;;42.57;;
13014;SDS011;6573;57.696;11.950;2024-03-02T01:06:38;60.60;;;43.07;;
13014;SDS011;6573;57.696;11.950;2024-03-02T01:09:07;60.70;;;40.67;;
13014;SDS011;6573;57.696;11.950;2024-03-02T01:11:38;59.00;;;43.07;;
13014;SDS011;6573;57.696;11.950;2024-03-02T01:14:09;61.40;;;41.87;;
13014;SDS011;6573;57.696;11.950;2024-03-02T01:16:38;62.23;;;42.93;;
13014;SDS011;6573;57.696;11.950;2024-03-02T01:19:07;58.30;;;42.27;;
13014;SDS011;6573;57.696;11.950;2024-03-02T01:21:36;58.90;;;42.30;;
13014;SDS011;6573;57.696;11.950;2024-03-02T01:24:07;60.97;;;42.43;;
13014;SDS011;6573;57.696;11.950;2024-03-02T01:26:36;56.50;;;42.40;;
13014;SDS011;6573;57.696;11.950;2024-03-02T01:29:06;61.50;;;41.83;;
13014;SDS011;6573;57.696;11.950;2024-03-02T01:31:35;57.27;;;41.13;;
13014;SDS011;6573;57.696;11.950;2024-03-02T01:34:03;61.90;;;42.77;;
13014;SDS011;6573;57.696;11.950;2024-03-02T01:36:32;57.73;;;41.80;;
13014;SDS011;6573;57.696;11.950;2024-03-02T01:39:00;58.80;;;40.60;;
13014;SDS011;6573;57.696;11.950;2024-03-02T01:41:28;57.57;;;39.37;;
13014;SDS011;6573;57.696;11.950;2024-03-02T01:44:03;60.00;;;43.10;;
13014;SDS011;6573;57.696;11.950;2024-03-02T01:46:32;57.43;;;41.67;;
13014;SDS011;6573;57.696;11.950;2024-03-02T01:49:02;59.90;;;42.43;;
13014;SDS011;6573;57.696;11.950;2024-03-02T01:51:31;60.97;;;41.37;;
13014;SDS011;6573;57.696;11.950;2024-03-02T01:54:01;58.83;;;41.30;;
13014;SDS011;6573;57.696;11.950;2024-03-02T01:56:29;60.87;;;42.53;;
13014;SDS011;6573;57.696;11.950;2024-03-02T01:58:58;55.43;;;40.43;;
13014;SDS011;6573;57.696;11.950;2024-03-02T02:01:28;64.20;;;40.20;;
13014;SDS011;6573;57.696;11.950;2024-03-02T02:03:57;60.27;;;41.00;;
13014;SDS011;6573;57.696;11.950;2024-03-02T02:06:26;56.13;;;40.47;;
13014;SDS011;6573;57.696;11.950;2024-03-02T02:08:56;56.53;;;39.63;;
13014;SDS011;6573;57.696;11.950;2024-03-02T02:11:25;58.67;;;40.00;;
13014;SDS011;6573;57.696;11.950;2024-03-02T02:13:54;57.20;;;40.50;;
13014;SDS011;6573;57.696;11.950;2024-03-02T02:16:23;55.93;;;39.00;;
13014;SDS011;6573;57.696;11.950;2024-03-02T02:18:53;54.00;;;37.50;;
13014;SDS011;6573;57.696;11.950;2024-03-02T02:21:23;53.03;;;39.07;;
13014;SDS011;6573;57.696;11.950;2024-03-02T02:23:53;54.77;;;39.00;;
13014;SDS011;6573;57.696;11.950;2024-03-02T02:26:21;56.53;;;39.97;;
13014;SDS011;6573;57.696;11.950;2024-03-02T02:28:50;59.07;;;39.73;;
13014;SDS011;6573;57.696;11.950;2024-03-02T02:31:18;56.87;;;41.20;;
13014;SDS011;6573;57.696;11.950;2024-03-02T02:33:47;57.20;;;40.70;;
13014;SDS011;6573;57.696;11.950;2024-03-02T02:36:15;57.97;;;42.00;;
13014;SDS011;6573;57.696;11.950;2024-03-02T02:38:47;58.77;;;40.00;;
13014;SDS011;6573;57.696;11.950;2024-03-02T02:41:17;59.53;;;42.07;;
13014;SDS011;6573;57.696;11.950;2024-03-02T02:43:46;60.83;;;41.60;;
13014;SDS011;6573;57.696;11.950;2024-03-02T02:46:14;58.73;;;42.13;;
13014;SDS011;6573;57.696;11.950;2024-03-02T02:48:42;57.87;;;40.87;;
13014;SDS011;6573;57.696;11.950;2024-03-02T02:51:13;59.40;;;41.57;;
13014;SDS011;6573;57.696;11.950;2024-03-02T02:53:41;61.77;;;41.30;;
13014;SDS011;6573;57.696;11.950;2024-03-02T02:56:12;56.87;;;40.63;;
13014;SDS011;6573;57.696;11.950;2024-03-02T02:58:41;56.67;;;39.93;;
13014;SDS011;6573;57.696;11.950;2024-03-02T03:01:09;55.43;;;40.60;;
13014;SDS011;6573;57.696;11.950;2024-03-02T03:03:38;64.47;;;41.63;;
13014;SDS011;6573;57.696;11.950;2024-03-02T03:06:07;60.87;;;42.17;;
13014;SDS011;6573;57.696;11.950;2024-03-02T03:08:36;55.50;;;40.73;;
13014;SDS011;6573;57.696;11.950;2024-03-02T03:11:05;57.77;;;40.97;;
13014;SDS011;6573;57.696;11.950;2024-03-02T03:13:35;56.70;;;40.13;;
13014;SDS011;6573;57.696;11.950;2024-03-02T03:16:04;54.63;;;38.73;;
13014;SDS011;6573;57.696;11.950;2024-03-02T03:18:32;56.73;;;40.37;;
13014;SDS011;6573;57.696;11.950;2024-03-02T03:21:01;55.97;;;38.77;;
13014;SDS011;6573;57.696;11.950;2024-03-02T03:23:30;57.20;;;39.10;;
13014;SDS011;6573;57.696;11.950;2024-03-02T03:25:59;56.13;;;39.60;;
13014;SDS011;6573;57.696;11.950;2024-03-02T03:28:27;56.07;;;39.40;;
13014;SDS011;6573;57.696;11.950;2024-03-02T03:30:57;56.90;;;40.77;;
13014;SDS011;6573;57.696;11.950;2024-03-02T03:33:26;53.17;;;39.60;;
13014;SDS011;6573;57.696;11.950;2024-03-02T03:35:54;56.63;;;39.97;;
13014;SDS011;6573;57.696;11.950;2024-03-02T03:38:23;54.97;;;38.87;;
13014;SDS011;6573;57.696;11.950;2024-03-02T03:40:51;56.97;;;40.87;;
13014;SDS011;6573;57.696;11.950;2024-03-02T03:43:22;55.27;;;39.13;;
13014;SDS011;6573;57.696;11.950;2024-03-02T03:45:50;56.87;;;39.70;;
13014;SDS011;6573;57.696;11.950;2024-03-02T03:48:21;60.00;;;40.83;;
13014;SDS011;6573;57.696;11.950;2024-03-02T03:50:50;55.27;;;38.77;;
13014;SDS011;6573;57.696;11.950;2024-03-02T03:53:18;55.50;;;39.00;;
13014;SDS011;6573;57.696;11.950;2024-03-02T03:55:47;56.87;;;40.80;;
13014;SDS011;6573;57.696;11.950;2024-03-02T03:58:16;53.97;;;38.50;;
13014;SDS011;6573;57.696;11.950;2024-03-02T04:00:48;51.20;;;37.53;;
13014;SDS011;6573;57.696;11.950;2024-03-02T04:03:17;55.17;;;38.80;;
13014;SDS011;6573;57.696;11.950;2024-03-02T04:05:47;59.73;;;39.90;;
13014;SDS011;6573;57.696;11.950;2024-03-02T04:08:17;55.27;;;38.20;;
13014;SDS011;6573;57.696;11.950;2024-03-02T04:10:46;54.63;;;38.90;;
13014;SDS011;6573;57.696;11.950;2024-03-02T04:13:15;53.67;;;38.03;;
13014;SDS011;6573;57.696;11.950;2024-03-02T04:15:44;55.07;;;39.47;;
13014;SDS011;6573;57.696;11.950;2024-03-02T04:18:12;52.30;;;37.33;;
13014;SDS011;6573;57.696;11.950;2024-03-02T04:20:41;53.70;;;38.13;;
13014;SDS011;6573;57.696;11.950;2024-03-02T04:23:11;56.97;;;39.03;;
13014;SDS011;6573;57.696;11.950;2024-03-02T04:25:40;55.80;;;38.20;;
13014;SDS011;6573;57.696;11.950;2024-03-02T04:28:08;51.20;;;37.50;;
13014;SDS011;6573;57.696;11.950;2024-03-02T04:30:36;53.67;;;38.20;;
13014;SDS011;6573;57.696;11.950;2024-03-02T04:33:06;53.20;;;37.87;;
13014;SDS011;6573;57.696;11.950;2024-03-02T04:35:36;52.33;;;37.57;;
13014;SDS011;6573;57.696;11.950;2024-03-02T04:38:05;55.43;;;37.57;;
13014;SDS011;6573;57.696;11.950;2024-03-02T04:40:38;51.23;;;37.40;;
13014;SDS011;6573;57.696;11.950;2024-03-02T04:43:09;51.10;;;37.90;;
13014;SDS011;6573;57.696;11.950;2024-03-02T04:45:42;49.80;;;37.37;;
13014;SDS011;6573;57.696;11.950;2024-03-02T04:48:11;52.63;;;37.43;;
13014;SDS011;6573;57.696;11.950;2024-03-02T04:50:40;52.77;;;37.10;;
13014;SDS011;6573;57.696;11.950;2024-03-02T04:53:09;49.37;;;35.87;;
13014;SDS011;6573;57.696;11.950;2024-03-02T04:55:39;51.07;;;36.97;;
13014;SDS011;6573;57.696;11.950;2024-03-02T04:58:47;49.53;;;36.03;;
13014;SDS011;6573;57.696;11.950;2024-03-02T05:01:16;51.03;;;36.80;;
13014;SDS011;6573;57.696;11.950;2024-03-02T05:03:44;50.90;;;37.20;;
13014;SDS011;6573;57.696;11.950;2024-03-02T05:06:13;47.67;;;36.07;;
13014;SDS011;6573;57.696;11.950;2024-03-02T05:08:41;51.40;;;35.40;;
13014;SDS011;6573;57.696;11.950;2024-03-02T05:11:13;47.10;;;35.00;;
13014;SDS011;6573;57.696;11.950;2024-03-02T05:13:59;47.83;;;35.40;;
13014;SDS011;6573;57.696;11.950;2024-03-02T05:16:27;48.03;;;35.20;;
13014;SDS011;6573;57.696;11.950;2024-03-02T05:18:55;49.20;;;36.23;;
13014;SDS011;6573;57.696;11.950;2024-03-02T05:21:25;47.80;;;35.07;;
13014;SDS011;6573;57.696;11.950;2024-03-02T05:23:53;46.47;;;35.93;;
13014;SDS011;6573;57.696;11.950;2024-03-02T05:26:24;47.37;;;35.03;;
13014;SDS011;6573;57.696;11.950;2024-03-02T05:28:53;49.93;;;34.77;;
13014;SDS011;6573;57.696;11.950;2024-03-02T05:31:23;46.33;;;34.67;;
13014;SDS011;6573;57.696;11.950;2024-03-02T05:33:53;47.97;;;35.67;;
13014;SDS011;6573;57.696;11.950;2024-03-02T05:36:23;47.30;;;34.47;;
13014;SDS011;6573;57.696;11.950;2024-03-02T05:38:53;51.53;;;35.93;;
13014;SDS011;6573;57.696;11.950;2024-03-02T05:41:24;48.60;;;35.37;;
13014;SDS011;6573;57.696;11.950;2024-03-02T05:43:53;49.27;;;35.50;;
13014;SDS011;6573;57.696;11.950;2024-03-02T05:46:24;46.03;;;34.37;;
13014;SDS011;6573;57.696;11.950;2024-03-02T05:48:52;46.70;;;34.40;;
13014;SDS011;6573;57.696;11.950;2024-03-02T05:51:21;48.73;;;34.90;;
13014;SDS011;6573;57.696;11.950;2024-03-02T05:53:51;47.03;;;34.57;;
13014;SDS011;6573;57.696;11.950;2024-03-02T05:56:25;47.97;;;34.30;;
13014;SDS011;6573;57.696;11.950;2024-03-02T05:58:53;46.33;;;34.23;;
13014;SDS011;6573;57.696;11.950;2024-03-02T06:01:35;47.07;;;34.03;;
13014;SDS011;6573;57.696;11.950;2024-03-02T06:04:04;49.47;;;35.20;;
13014;SDS011;6573;57.696;11.950;2024-03-02T06:06:33;44.57;;;33.70;;
13014;SDS011;6573;57.696;11.950;2024-03-02T06:09:04;45.03;;;33.60;;
13014;SDS011;6573;57.696;11.950;2024-03-02T06:11:37;50.37;;;34.40;;
13014;SDS011;6573;57.696;11.950;2024-03-02T06:17:10;45.57;;;34.87;;
13014;SDS011;6573;57.696;11.950;2024-03-02T06:19:39;45.87;;;34.73;;
13014;SDS011;6573;57.696;11.950;2024-03-02T06:22:27;48.43;;;34.77;;
13014;SDS011;6573;57.696;11.950;2024-03-02T06:25:12;48.27;;;34.70;;
13014;SDS011;6573;57.696;11.950;2024-03-02T06:27:42;48.90;;;35.77;;
13014;SDS011;6573;57.696;11.950;2024-03-02T06:30:12;49.17;;;35.83;;
13014;SDS011;6573;57.696;11.950;2024-03-02T06:32:43;51.07;;;37.37;;
13014;SDS011;6573;57.696;11.950;2024-03-02T06:35:19;53.60;;;36.97;;
13014;SDS011;6573;57.696;11.950;2024-03-02T06:37:48;60.07;;;37.83;;
13014;SDS011;6573;57.696;11.950;2024-03-02T06:40:19;56.87;;;37.87;;
13014;SDS011;6573;57.696;11.950;2024-03-02T06:42:50;55.80;;;38.73;;
13014;SDS011;6573;57.696;11.950;2024-03-02T06:45:19;56.07;;;37.30;;
13014;SDS011;6573;57.696;11.950;2024-03-02T06:47:50;56.93;;;40.20;;
13014;SDS011;6573;57.696;11.950;2024-03-02T06:50:19;58.67;;;40.77;;
13014;SDS011;6573;57.696;11.950;2024-03-02T06:52:49;55.13;;;40.43;;
13014;SDS011;6573;57.696;11.950;2024-03-02T06:55:18;59.80;;;40.20;;
13014;SDS011;6573;57.696;11.950;2024-03-02T06:57:47;59.93;;;40.73;;
13014;SDS011;6573;57.696;11.950;2024-03-02T07:00:18;55.20;;;38.87;;
13014;SDS011;6573;57.696;11.950;2024-03-02T07:02:48;55.73;;;39.17;;
13014;SDS011;6573;57.696;11.950;2024-03-02T07:05:16;56.90;;;39.13;;
13014;SDS011;6573;57.696;11.950;2024-03-02T07:07:45;54.93;;;37.27;;
13014;SDS011;6573;57.696;11.950;2024-03-02T07:10:14;54.47;;;38.03;;
13014;SDS011;6573;57.696;11.950;2024-03-02T07:12:45;54.60;;;39.07;;
13014;SDS011;6573;57.696;11.950;2024-03-02T07:15:14;53.50;;;37.90;;
13014;SDS011;6573;57.696;11.950;2024-03-02T07:18:13;51.23;;;36.87;;
13014;SDS011;6573;57.696;11.950;2024-03-02T07:20:42;53.47;;;37.93;;
13014;SDS011;6573;57.696;11.950;2024-03-02T07:23:11;52.40;;;38.07;;
13014;SDS011;6573;57.696;11.950;2024-03-02T07:25:40;54.90;;;37.77;;
13014;SDS011;6573;57.696;11.950;2024-03-02T07:28:12;58.77;;;38.00;;
13014;SDS011;6573;57.696;11.950;2024-03-02T07:30:44;52.57;;;38.83;;
13014;SDS011;6573;57.696;11.950;2024-03-02T07:33:14;50.63;;;35.53;;
13014;SDS011;6573;57.696;11.950;2024-03-02T07:35:43;52.13;;;37.30;;
13014;SDS011;6573;57.696;11.950;2024-03-02T07:38:11;53.17;;;37.17;;
13014;SDS011;6573;57.696;11.950;2024-03-02T07:40:40;48.93;;;36.70;;
13014;SDS011;6573;57.696;11.950;2024-03-02T07:43:09;54.03;;;35.97;;
13014;SDS011;6573;57.696;11.950;2024-03-02T07:45:39;52.43;;;36.60;;
13014;SDS011;6573;57.696;11.950;2024-03-02T07:48:08;52.13;;;38.00;;
13014;SDS011;6573;57.696;11.950;2024-03-02T07:50:39;49.93;;;36.80;;
13014;SDS011;6573;57.696;11.950;2024-03-02T07:53:09;53.83;;;36.30;;
13014;SDS011;6573;57.696;11.950;2024-03-02T07:55:42;52.47;;;37.10;;
13014;SDS011;6573;57.696;11.950;2024-03-02T07:58:16;50.20;;;37.00;;
13014;SDS011;6573;57.696;11.950;2024-03-02T08:00:59;51.40;;;36.77;;
13014;SDS011;6573;57.696;11.950;2024-03-02T08:03:54;49.17;;;36.43;;
13014;SDS011;6573;57.696;11.950;2024-03-02T08:06:29;55.33;;;37.07;;
13014;SDS011;6573;57.696;11.950;2024-03-02T08:16:22;46.30;;;35.60;;
13014;SDS011;6573;57.696;11.950;2024-03-02T08:20:03;48.07;;;36.80;;
13014;SDS011;6573;57.696;11.950;2024-03-02T08:23:23;52.23;;;37.03;;
13014;SDS011;6573;57.696;11.950;2024-03-02T08:25:55;50.37;;;36.30;;
13014;SDS011;6573;57.696;11.950;2024-03-02T08:28:25;48.07;;;36.93;;
13014;SDS011;6573;57.696;11.950;2024-03-02T08:42:30;49.50;;;38.20;;
13014;SDS011;6573;57.696;11.950;2024-03-02T08:45:28;49.77;;;36.53;;
13014;SDS011;6573;57.696;11.950;2024-03-02T08:48:13;49.47;;;38.10;;
13014;SDS011;6573;57.696;11.950;2024-03-02T08:50:46;52.17;;;37.87;;
13014;SDS011;6573;57.696;11.950;2024-03-02T08:53:19;51.00;;;37.03;;
13014;SDS011;6573;57.696;11.950;2024-03-02T08:55:50;49.67;;;37.70;;
13014;SDS011;6573;57.696;11.950;2024-03-02T08:58:35;58.57;;;37.83;;
13014;SDS011;6573;57.696;11.950;2024-03-02T09:01:13;49.53;;;37.57;;
13014;SDS011;6573;57.696;11.950;2024-03-02T09:04:21;49.13;;;37.60;;
13014;SDS011;6573;57.696;11.950;2024-03-02T09:07:45;51.10;;;37.63;;
13014;SDS011;6573;57.696;11.950;2024-03-02T09:48:54;58.97;;;45.07;;
13014;SDS011;6573;57.696;11.950;2024-03-02T09:51:52;57.17;;;45.33;;
13014;SDS011;6573;57.696;11.950;2024-03-02T09:58:16;57.70;;;44.63;;
13014;SDS011;6573;57.696;11.950;2024-03-02T10:30:17;55.83;;;43.03;;
13014;SDS011;6573;57.696;11.950;2024-03-02T10:32:52;55.10;;;43.17;;
13014;SDS011;6573;57.696;11.950;2024-03-02T10:36:09;56.43;;;42.43;;
13014;SDS011;6573;57.696;11.950;2024-03-02T12:57:03;15.70;;;14.20;;
13014;SDS011;6573;57.696;11.950;2024-03-02T13:03:22;14.77;;;13.27;;
13014;SDS011;6573;57.696;11.950;2024-03-02T13:06:06;15.10;;;13.70;;
13014;SDS011;6573;57.696;11.950;2024-03-02T13:22:26;13.10;;;11.90;;
13014;SDS011;6573;57.696;11.950;2024-03-02T15:22:32;15.37;;;11.30;;
13014;SDS011;6573;57.696;11.950;2024-03-02T15:25:15;10.80;;;9.70;;
13014;SDS011;6573;57.696;11.950;2024-03-02T15:28:15;12.10;;;9.80;;
13014;SDS011;6573;57.696;11.950;2024-03-02T15:32:56;11.37;;;9.63;;
13014;SDS011;6573;57.696;11.950;2024-03-02T15:35:13;12.43;;;10.37;;
13014;SDS011;6573;57.696;11.950;2024-03-02T15:46:12;13.33;;;11.90;;
13014;SDS011;6573;57.696;11.950;2024-03-02T15:53:06;13.80;;;12.30;;
13014;SDS011;6573;57.696;11.950;2024-03-02T15:56:08;17.73;;;12.67;;
13014;SDS011;6573;57.696;11.950;2024-03-02T16:06:51;15.90;;;13.13;;
13014;SDS011;6573;57.696;11.950;2024-03-02T16:13:44;15.80;;;14.20;;
13014;SDS011;6573;57.696;11.950;2024-03-02T16:16:34;17.70;;;15.73;;
13014;SDS011;6573;57.696;11.950;2024-03-02T16:19:34;16.93;;;15.03;;
13014;SDS011;6573;57.696;11.950;2024-03-02T16:22:09;15.97;;;14.27;;
13014;SDS011;6573;57.696;11.950;2024-03-02T16:24:51;16.57;;;14.77;;
13014;SDS011;6573;57.696;11.950;2024-03-02T16:27:50;15.83;;;14.10;;
13014;SDS011;6573;57.696;11.950;2024-03-02T16:30:23;19.53;;;15.70;;
13014;SDS011;6573;57.696;11.950;2024-03-02T16:33:04;15.60;;;14.00;;
13014;SDS011;6573;57.696;11.950;2024-03-02T16:39:13;19.73;;;15.87;;
13014;SDS011;6573;57.696;11.950;2024-03-02T16:42:36;17.87;;;15.83;;
13014;SDS011;6573;57.696;11.950;2024-03-02T16:46:19;17.27;;;15.43;;
13014;SDS011;6573;57.696;11.950;2024-03-02T16:52:50;16.97;;;15.17;;
13014;SDS011;6573;57.696;11.950;2024-03-02T16:55:43;18.53;;;16.50;;
13014;SDS011;6573;57.696;11.950;2024-03-02T17:03:33;15.33;;;13.70;;
13014;SDS011;6573;57.696;11.950;2024-03-02T17:12:53;17.70;;;15.77;;
13014;SDS011;6573;57.696;11.950;2024-03-02T17:15:28;22.87;;;19.10;;
13014;SDS011;6573;57.696;11.950;2024-03-02T17:18:04;18.80;;;16.23;;
13014;SDS011;6573;57.696;11.950;2024-03-02T17:20:46;17.33;;;15.40;;
13014;SDS011;6573;57.696;11.950;2024-03-02T17:23:32;15.97;;;14.17;;
13014;SDS011;6573;57.696;11.950;2024-03-02T17:26:25;17.57;;;15.43;;
13014;SDS011;6573;57.696;11.950;2024-03-02T17:28:58;16.80;;;14.20;;
13014;SDS011;6573;57.696;11.950;2024-03-02T17:31:32;16.47;;;14.40;;
13014;SDS011;6573;57.696;11.950;2024-03-02T17:34:34;15.50;;;13.90;;
13014;SDS011;6573;57.696;11.950;2024-03-02T17:37:04;16.87;;;14.87;;
13014;SDS011;6573;57.696;11.950;2024-03-02T17:40:19;16.77;;;14.30;;
13014;SDS011;6573;57.696;11.950;2024-03-02T17:42:52;15.80;;;13.53;;
13014;SDS011;6573;57.696;11.950;2024-03-02T17:45:24;17.07;;;15.27;;
13014;SDS011;6573;57.696;11.950;2024-03-02T17:47:53;18.60;;;15.17;;
13014;SDS011;6573;57.696;11.950;2024-03-02T17:50:22;18.77;;;15.57;;
13014;SDS011;6573;57.696;11.950;2024-03-02T17:52:52;17.40;;;15.53;;
13014;SDS011;6573;57.696;11.950;2024-03-02T17:55:23;19.07;;;16.53;;
13014;SDS011;6573;57.696;11.950;2024-03-02T17:57:53;16.77;;;14.37;;
13014;SDS011;6573;57.696;11.950;2024-03-02T18:06:43;16.70;;;14.93;;
13014;SDS011;6573;57.696;11.950;2024-03-02T18:09:16;18.53;;;15.73;;
13014;SDS011;6573;57.696;11.950;2024-03-02T18:11:47;17.53;;;15.33;;
13014;SDS011;6573;57.696;11.950;2024-03-02T18:14:19;16.10;;;14.40;;
13014;SDS011;6573;57.696;11.950;2024-03-02T18:16:54;18.23;;;16.27;;
13014;SDS011;6573;57.696;11.950;2024-03-02T18:19:30;17.80;;;15.73;;
13014;SDS011;6573;57.696;11.950;2024-03-02T18:22:01;15.87;;;14.20;;
13014;SDS011;6573;57.696;11.950;2024-03-02T18:24:34;17.30;;;15.47;;
13014;SDS011;6573;57.696;11.950;2024-03-02T18:27:05;16.90;;;15.20;;
13014;SDS011;6573;57.696;11.950;2024-03-02T18:29:39;16.50;;;14.90;;
13014;SDS011;6573;57.696;11.950;2024-03-02T18:32:10;15.70;;;14.07;;
13014;SDS011;6573;57.696;11.950;2024-03-02T18:34:45;16.67;;;13.93;;
13014;SDS011;6573;57.696;11.950;2024-03-02T18:37:15;20.10;;;17.40;;
13014;SDS011;6573;57.696;11.950;2024-03-02T18:39:49;17.93;;;15.37;;
13014;SDS011;6573;57.696;11.950;2024-03-02T18:42:20;20.23;;;15.57;;
13014;SDS011;6573;57.696;11.950;2024-03-02T18:44:52;16.93;;;14.47;;
13014;SDS011;6573;57.696;11.950;2024-03-02T19:05:43;19.20;;;16.37;;
13014;SDS011;6573;57.696;11.950;2024-03-02T19:08:31;16.93;;;14.87;;
13014;SDS011;6573;57.696;11.950;2024-03-02T19:11:28;16.90;;;14.97;;
13014;SDS011;6573;57.696;11.950;2024-03-02T19:14:09;19.93;;;16.07;;
13014;SDS011;6573;57.696;11.950;2024-03-02T19:16:49;17.03;;;15.03;;
13014;SDS011;6573;57.696;11.950;2024-03-02T19:19:28;18.37;;;16.37;;
13014;SDS011;6573;57.696;11.950;2024-03-02T19:22:13;17.20;;;15.30;;
13014;SDS011;6573;57.696;11.950;2024-03-02T19:24:49;18.10;;;15.50;;
13014;SDS011;6573;57.696;11.950;2024-03-02T19:27:35;19.47;;;15.03;;
13014;SDS011;6573;57.696;11.950;2024-03-02T19:30:11;16.73;;;14.77;;
13014;SDS011;6573;57.696;11.950;2024-03-02T19:33:05;15.80;;;14.10;;
13014;SDS011;6573;57.696;11.950;2024-03-02T19:35:44;15.90;;;14.10;;
13014;SDS011;6573;57.696;11.950;2024-03-02T19:38:34;16.23;;;14.53;;
13014;SDS011;6573;57.696;11.950;2024-03-02T19:41:10;15.70;;;14.07;;
13014;SDS011;6573;57.696;11.950;2024-03-02T19:43:47;16.77;;;14.70;;
13014;SDS011;6573;57.696;11.950;2024-03-02T19:46:33;16.37;;;14.63;;
13014;SDS011;6573;57.696;11.950;2024-03-02T19:49:10;17.53;;;15.47;;
13014;SDS011;6573;57.696;11.950;2024-03-02T19:51:44;17.13;;;15.30;;
13014;SDS011;6573;57.696;11.950;2024-03-02T19:54:14;16.93;;;15.13;;
13014;SDS011;6573;57.696;11.950;2024-03-02T19:56:50;15.80;;;14.20;;
13014;SDS011;6573;57.696;11.950;2024-03-02T19:59:35;16.70;;;15.00;;
13014;SDS011;6573;57.696;11.950;2024-03-02T20:05:45;16.50;;;14.70;;
13014;SDS011;6573;57.696;11.950;2024-03-02T20:08:22;17.30;;;15.47;;
13014;SDS011;6573;57.696;11.950;2024-03-02T20:10:54;18.03;;;16.13;;
13014;SDS011;6573;57.696;11.950;2024-03-02T20:13:30;17.57;;;15.77;;
13014;SDS011;6573;57.696;11.950;2024-03-02T20:16:09;17.33;;;15.30;;
13014;SDS011;6573;57.696;11.950;2024-03-02T20:18:47;19.17;;;17.17;;
13014;SDS011;6573;57.696;11.950;2024-03-02T20:21:37;19.43;;;17.43;;
13014;SDS011;6573;57.696;11.950;2024-03-02T20:24:20;19.40;;;17.30;;
13014;SDS011;6573;57.696;11.950;2024-03-02T20:26:52;20.07;;;17.60;;
13014;SDS011;6573;57.696;11.950;2024-03-02T20:29:46;18.37;;;16.57;;
13014;SDS011;6573;57.696;11.950;2024-03-02T20:32:23;20.23;;;18.03;;
13014;SDS011;6573;57.696;11.950;2024-03-02T20:38:20;21.17;;;18.97;;
13014;SDS011;6573;57.696;11.950;2024-03-02T20:40:51;20.97;;;18.87;;
13014;SDS011;6573;57.696;11.950;2024-03-02T20:43:20;21.80;;;19.43;;
13014;SDS011;6573;57.696;11.950;2024-03-02T20:45:50;21.13;;;18.90;;
13014;SDS011;6573;57.696;11.950;2024-03-02T20:48:22;22.80;;;20.43;;
13014;SDS011;6573;57.696;11.950;2024-03-02T20:50:56;20.83;;;18.63;;
13014;SDS011;6573;57.696;11.950;2024-03-02T20:53:25;21.63;;;19.27;;
13014;SDS011;6573;57.696;11.950;2024-03-02T20:55:55;21.30;;;19.10;;
13014;SDS011;6573;57.696;11.950;2024-03-02T20:59:03;22.73;;;19.83;;
13014;SDS011;6573;57.696;11.950;2024-03-02T21:07:55;23.93;;;21.00;;
13014;SDS011;6573;57.696;11.950;2024-03-02T21:10:25;21.40;;;19.10;;
13014;SDS011;6573;57.696;11.950;2024-03-02T21:12:53;22.10;;;19.60;;
13014;SDS011;6573;57.696;11.950;2024-03-02T21:16:06;24.07;;;21.47;;
13014;SDS011;6573;57.696;11.950;2024-03-02T21:18:34;24.63;;;21.20;;
13014;SDS011;6573;57.696;11.950;2024-03-02T21:21:24;25.10;;;21.63;;
13014;SDS011;6573;57.696;11.950;2024-03-02T21:27:38;25.63;;;22.03;;
13014;SDS011;6573;57.696;11.950;2024-03-02T21:30:23;27.93;;;22.70;;
13014;SDS011;6573;57.696;11.950;2024-03-02T21:32:57;25.73;;;22.53;;
13014;SDS011;6573;57.696;11.950;2024-03-02T21:35:29;28.00;;;24.00;;
13014;SDS011;6573;57.696;11.950;2024-03-02T21:38:57;26.53;;;23.10;;
13014;SDS011;6573;57.696;11.950;2024-03-02T21:41:43;28.67;;;24.23;;
13014;SDS011;6573;57.696;11.950;2024-03-02T21:44:18;27.70;;;23.47;;
13014;SDS011;6573;57.696;11.950;2024-03-02T21:46:52;29.73;;;24.97;;
13014;SDS011;6573;57.696;11.950;2024-03-02T21:49:22;29.57;;;24.83;;
13014;SDS011;6573;57.696;11.950;2024-03-02T21:51:55;26.53;;;23.70;;
13014;SDS011;6573;57.696;11.950;2024-03-02T21:54:44;27.17;;;24.27;;
13014;SDS011;6573;57.696;11.950;2024-03-02T22:00:31;28.07;;;24.63;;
13014;SDS011;6573;57.696;11.950;2024-03-02T22:06:15;29.20;;;24.83;;
13014;SDS011;6573;57.696;11.950;2024-03-02T22:09:10;31.40;;;25.67;;
13014;SDS011;6573;57.696;11.950;2024-03-02T22:20:05;31.20;;;25.87;;
13014;SDS011;6573;57.696;11.950;2024-03-02T23:43:06;47.17;;;34.73;;
13014;SDS011;6573;57.696;11.950;2024-03-02T23:45:38;54.00;;;36.07;;
13014;SDS011;6573;57.696;11.950;2024-03-02T23:48:07;50.23;;;35.47;;
13014;SDS011;6573;57.696;11.950;2024-03-02T23:50:38;49.47;;;34.73;;
13014;SDS011;6573;57.696;11.950;2024-03-02T23:53:07;51.00;;;36.50;;
13014;SDS011;6573;57.696;11.950;2024-03-02T23:55:36;54.60;;;38.13;;
13014;SDS011;6573;57.696;11.950;2024-03-02T23:58:19;55.60;;;37.67;;
